Lewisetta, VA NWLON current weather conditions

sailwx.info

Wind from 346 at 6 knots gusting 10

Air temperature 12.2° C
Water temperature 2.8° C

Last reported at 2018-Jan-23 23:00 UTC.
Time now 2018-Jan-24 00:00 UTC

Location: N 37°60' W 076°28'.
View on Google Maps.

See reports from other nearby stations

  
Tides and Currents Weather Stations Pressure Air Temp Water Temp Dewpoint Dewpoint Depression Visibility Wind Speed Wind Dir Waves Ship Positions
date/time (UTC)wind fromknots sea level pressurealtimeterstation pressurevisibilityair tempwater tempwave heightnotes
2018-Jan-23 23:00 346 6 gusting 10 12.2 2.8
2018-Jan-23 22:54 349 7 gusting 10 12.2 2.8
2018-Jan-23 22:48 347 8 gusting 13 12.2 3.3
2018-Jan-23 22:42 347 8 gusting 13 12.8 3.3
2018-Jan-23 22:36 351 9 gusting 13 13.3 3.9
2018-Jan-23 22:30 351 13 gusting 16 13.3 3.3
2018-Jan-23 22:24 347 11 gusting 14 13.3 3.3
2018-Jan-23 22:18 348 13 gusting 18 13.9 3.3
2018-Jan-23 22:12 343 11 gusting 15 15.0 3.3
2018-Jan-23 22:06 344 11 gusting 16 15.0 3.3
2018-Jan-23 22:00 342 14 gusting 19 15.0 3.3
2018-Jan-23 21:54 337 15 gusting 20 16.1 4.4
2018-Jan-23 21:48 302 14 gusting 19 19.4 4.4
2018-Jan-23 21:42 300 19 gusting 25 19.4 3.9
2018-Jan-23 21:36 302 13 gusting 18 18.9 3.9
2018-Jan-23 21:30 306 13 gusting 16 19.4 3.9
2018-Jan-23 21:24 302 14 gusting 18 19.4 4.4
2018-Jan-23 21:18 298 14 gusting 24 20.0 3.9
2018-Jan-23 21:12 290 15 gusting 19 20.0 3.9
2018-Jan-23 21:06 293 19 gusting 25 20.6 3.9
2018-Jan-23 21:00 299 16 gusting 21 20.6 3.9
2018-Jan-23 20:54 295 11 gusting 15 20.6 3.9
2018-Jan-23 20:48 291 16 gusting 24 20.6 3.9
2018-Jan-23 20:42 289 12 gusting 15 20.6 3.9
2018-Jan-23 20:36 286 12 gusting 18 20.6 4.4
2018-Jan-23 20:30 289 13 gusting 18 20.6 4.4
2018-Jan-23 20:24 280 13 gusting 16 20.6 5.6
2018-Jan-23 20:18 302 15 gusting 19 20.6 5.6
2018-Jan-23 20:12 308 15 gusting 19 20.6 5.6
2018-Jan-23 20:06 263 20 gusting 26 20.6 5.6
2018-Jan-23 20:00 255 18 gusting 27 20.6 5.6
2018-Jan-23 19:54 259 24 gusting 28 21.7 5.0
2018-Jan-23 19:48 270 26 gusting 33 20.6 5.0
2018-Jan-23 19:42 253 22 gusting 27 20.6 5.0
2018-Jan-23 19:36 265 20 gusting 26 18.9 5.0
2018-Jan-23 19:30 257 16 gusting 21 20.6 5.0
2018-Jan-23 19:24 243 13 gusting 21 20.6 5.0
2018-Jan-23 19:18 258 16 gusting 21 20.6 5.0
2018-Jan-23 19:12 249 18 gusting 23 21.1 5.0
2018-Jan-23 19:06 243 16 gusting 22 20.6 5.0
2018-Jan-23 19:00 247 16 gusting 22 20.6 5.0
2018-Jan-23 18:54 261 23 gusting 30 20.0 5.0
2018-Jan-23 18:48 252 19 gusting 26 20.6 5.0
2018-Jan-23 18:42 260 19 gusting 26 20.6 5.0
2018-Jan-23 18:36 242 16 gusting 22 20.6 5.0
2018-Jan-23 18:30 237 20 gusting 26 20.6 5.0
2018-Jan-23 18:24 243 17 gusting 27 20.6 5.0
2018-Jan-23 18:18 245 16 gusting 26 19.4 5.0
2018-Jan-23 18:12 248 16 gusting 21 20.0 5.0
2018-Jan-23 18:06 235 14 gusting 19 19.4 5.0
2018-Jan-23 18:00 236 16 gusting 20 19.4 5.0
2018-Jan-23 17:54 247 13 gusting 19 18.9 5.0
2018-Jan-23 17:48 246 17 gusting 22 18.9 5.0
2018-Jan-23 17:42 245 15 gusting 23 18.9 5.0
2018-Jan-23 17:36 240 13 gusting 18 18.9 5.0
2018-Jan-23 17:30 243 16 gusting 19 18.9 5.0
2018-Jan-23 17:24 245 14 gusting 26 18.9 5.0
2018-Jan-23 17:18 245 13 gusting 19 18.3 5.0
2018-Jan-23 17:12 239 12 gusting 15 18.3 5.0
2018-Jan-23 17:06 245 14 gusting 19 18.3 4.4
2018-Jan-23 17:00 242 11 gusting 15 17.8 4.4
2018-Jan-23 16:54 239 15 gusting 20 17.8 4.4
2018-Jan-23 16:48 246 12 gusting 13 17.8 4.4
2018-Jan-23 16:42 240 10 gusting 13 17.2 4.4
2018-Jan-23 16:36 241 10 gusting 13 17.2 4.4
2018-Jan-23 16:30 242 13 gusting 17 17.2 4.4
2018-Jan-23 16:24 238 14 gusting 19 17.2 4.4
2018-Jan-23 16:18 242 11 gusting 15 16.7 4.4
2018-Jan-23 16:12 235 7 gusting 10 16.1 4.4
2018-Jan-23 16:06 227 8 gusting 11 16.7 4.4
2018-Jan-23 16:00 233 7 gusting 9 16.1 4.4
2018-Jan-23 15:54 223 7 gusting 10 15.6 4.4
2018-Jan-23 15:48 215 9 gusting 11 15.6 4.4
2018-Jan-23 15:42 206 8 gusting 9 15.6 4.4
2018-Jan-23 15:36 221 10 gusting 13 15.6 4.4
2018-Jan-23 15:30 231 14 gusting 17 16.1 4.4
2018-Jan-23 15:24 231 14 gusting 17 16.1 4.4
2018-Jan-23 15:18 241 14 gusting 26 16.1 3.9
2018-Jan-23 15:12 234 13 gusting 16 15.6 3.9
2018-Jan-23 15:06 223 13 gusting 16 15.0 3.9
2018-Jan-23 15:00 221 13 gusting 17 15.0 3.3
2018-Jan-23 14:54 210 10 gusting 12 15.6 3.3
2018-Jan-23 14:48 213 11 gusting 13 15.0 4.4
2018-Jan-23 14:42 213 8 gusting 10 15.0 4.4
2018-Jan-23 14:36 225 10 gusting 12 14.4 4.4
2018-Jan-23 14:30 214 9 gusting 12 14.4 4.4
2018-Jan-23 14:24 211 10 gusting 11 15.0 4.4
2018-Jan-23 14:18 216 12 gusting 13 14.4 4.4
2018-Jan-23 14:12 213 13 gusting 16 15.0 4.4
2018-Jan-23 14:06 213 12 gusting 13 14.4 4.4
2018-Jan-23 14:00 214 11 gusting 13 15.0 4.4
2018-Jan-23 13:54 210 13 gusting 15 14.4 3.9
2018-Jan-23 13:48 241 12 gusting 15 15.0 3.9
2018-Jan-23 13:42 215 13 gusting 18 15.0 3.9
2018-Jan-23 13:36 210 15 gusting 18 15.0 3.9
2018-Jan-23 13:30 217 15 gusting 21 14.4 3.9
2018-Jan-23 13:24 208 16 gusting 19 15.0 3.9
2018-Jan-23 13:18 213 18 gusting 22 15.0 3.9
2018-Jan-23 13:12 209 19 gusting 22 15.0 3.9
2018-Jan-23 13:06 208 16 gusting 20 14.4 3.9
2018-Jan-23 13:00 201 19 gusting 26 14.4 3.9
2018-Jan-23 12:54 203 19 gusting 26 14.4 3.9
2018-Jan-23 12:48 200 20 gusting 26 15.0 3.9
2018-Jan-23 12:42 192 19 gusting 26 15.0 3.9
2018-Jan-23 12:36 194 20 gusting 29 14.4 3.9
2018-Jan-23 12:30 193 20 gusting 27 14.4 3.9
2018-Jan-23 12:24 192 19 gusting 24 14.4 3.9
2018-Jan-23 12:18 192 16 gusting 21 13.9 3.9
2018-Jan-23 12:12 192 19 gusting 22 14.4 3.9
2018-Jan-23 12:06 187 18 gusting 21 14.4 3.9
2018-Jan-23 12:00 188 19 gusting 25 14.4 3.9
2018-Jan-23 11:54 190 19 gusting 23 13.9 3.9
2018-Jan-23 11:48 184 18 gusting 24 14.4 3.9
2018-Jan-23 11:42 187 19 gusting 23 13.9 3.9
2018-Jan-23 11:36 187 19 gusting 26 14.4 3.9
2018-Jan-23 11:30 195 15 gusting 18 13.9 3.9
2018-Jan-23 11:24 194 16 gusting 22 13.9 3.9
2018-Jan-23 11:18 191 16 gusting 20 13.9 3.9
2018-Jan-23 11:12 195 16 gusting 22 14.4 3.9
2018-Jan-23 11:06 198 15 gusting 18 13.9 3.9
2018-Jan-23 11:00 194 15 gusting 19 14.4 3.9
2018-Jan-23 10:54 201 14 gusting 19 14.4 3.9
2018-Jan-23 10:48 204 13 gusting 15 13.9 3.9
2018-Jan-23 10:42 196 13 gusting 15 13.9 3.9
2018-Jan-23 10:36 196 13 gusting 15 13.9 3.9
2018-Jan-23 10:30 197 13 gusting 15 13.9 3.9
2018-Jan-23 10:24 197 14 gusting 19 14.4 3.3
2018-Jan-23 10:18 197 14 gusting 17 13.9 3.3
2018-Jan-23 10:12 205 16 gusting 19 13.9 3.3
2018-Jan-23 10:06 200 14 gusting 19 14.4 3.3
2018-Jan-23 10:00 201 13 gusting 17 13.9 3.3
2018-Jan-23 09:54 197 12 gusting 13 13.3 3.3
2018-Jan-23 09:48 196 13 gusting 15 13.9 3.3
2018-Jan-23 09:42 198 15 gusting 19 13.9 3.3
2018-Jan-23 09:36 195 14 gusting 17 13.9 3.3
2018-Jan-23 09:30 200 13 gusting 16 13.9 3.3
2018-Jan-23 09:24 201 13 gusting 17 13.9 3.3
2018-Jan-23 09:18 203 13 gusting 17 13.9 3.3
2018-Jan-23 09:12 195 12 gusting 14 13.3 3.3
2018-Jan-23 09:06 192 10 gusting 13 12.8 3.3
2018-Jan-23 09:00 200 8 gusting 10 12.2 3.3
2018-Jan-23 08:54 191 10 gusting 13 12.8 3.3
2018-Jan-23 08:48 188 11 gusting 13 12.8 3.3
2018-Jan-23 08:42 189 11 gusting 14 12.2 3.3
2018-Jan-23 08:36 188 11 gusting 13 12.8 3.3
2018-Jan-23 08:30 187 12 gusting 13 12.8 3.3
2018-Jan-23 08:24 194 13 gusting 16 13.3 3.3
2018-Jan-23 08:18 199 13 gusting 14 12.8 3.3
2018-Jan-23 08:12 203 13 gusting 15 12.8 3.3
2018-Jan-23 08:06 201 14 gusting 18 12.8 3.3
2018-Jan-23 08:00 197 13 gusting 17 12.8 3.3
2018-Jan-23 07:54 195 14 gusting 18 12.8 3.3
2018-Jan-23 07:48 193 13 gusting 17 12.2 3.3
2018-Jan-23 07:42 188 12 gusting 14 12.2 3.3
2018-Jan-23 07:36 193 11 gusting 13 12.2 3.3
2018-Jan-23 07:30 194 10 gusting 13 12.2 3.3
2018-Jan-23 07:24 197 10 gusting 13 12.2 3.3
2018-Jan-23 07:18 195 10 gusting 13 12.2 3.3
2018-Jan-23 07:12 198 11 gusting 13 12.8 3.3
2018-Jan-23 07:06 201 11 gusting 13 12.8 3.3
2018-Jan-23 07:00 201 11 gusting 13 12.8 3.3
2018-Jan-23 06:54 199 10 gusting 13 12.8 3.3
2018-Jan-23 06:48 200 9 gusting 12 12.8 3.3
2018-Jan-23 06:42 198 12 gusting 15 12.8 3.3
2018-Jan-23 06:36 204 11 gusting 13 12.2 3.3
2018-Jan-23 06:30 203 11 gusting 13 12.2 3.3
2018-Jan-23 06:24 202 9 gusting 12 11.7 3.3
2018-Jan-23 06:18 206 9 gusting 12 12.2 3.3
2018-Jan-23 06:12 206 7 gusting 11 11.7 3.3
2018-Jan-23 06:06 207 7 gusting 9 11.7 3.3
2018-Jan-23 06:00 208 7 gusting 9 11.7 3.3
2018-Jan-23 05:54 202 7 gusting 8 11.7 3.3
2018-Jan-23 05:48 196 7 gusting 8 11.7 3.3
2018-Jan-23 05:42 205 8 gusting 10 11.1 3.3
2018-Jan-23 05:36 207 9 gusting 11 11.7 3.3
2018-Jan-23 05:30 205 9 gusting 11 11.1 3.3
2018-Jan-23 05:24 202 9 gusting 11 11.7 3.3
2018-Jan-23 05:18 201 9 gusting 12 11.7 3.3
2018-Jan-23 05:12 203 8 gusting 10 11.1 3.3
2018-Jan-23 05:06 195 7 gusting 8 11.7 3.3
2018-Jan-23 05:00 202 6 gusting 8 11.1 3.3
2018-Jan-23 04:54 205 6 gusting 8 11.1 3.3
2018-Jan-23 04:48 204 6 gusting 7 11.1 3.3
2018-Jan-23 04:42 206 6 gusting 7 11.1 3.3
2018-Jan-23 04:36 214 6 gusting 7 11.1 3.3
2018-Jan-23 04:30 218 8 gusting 9 11.1 3.3
2018-Jan-23 04:24 205 8 gusting 10 11.1 3.3
2018-Jan-23 04:18 200 8 gusting 10 11.1 3.9
2018-Jan-23 04:12 205 9 gusting 11 11.7 3.3
2018-Jan-23 04:06 197 10 gusting 11 11.7 3.3
2018-Jan-23 04:00 201 10 gusting 11 11.7 3.9
2018-Jan-23 03:54 201 9 gusting 11 11.7 3.9
2018-Jan-23 03:48 199 8 gusting 10 11.7 3.9
2018-Jan-23 03:42 196 9 gusting 10 11.7 3.9
2018-Jan-23 03:36 196 8 gusting 10 11.1 3.9
2018-Jan-23 03:30 194 9 gusting 10 11.7 3.9
2018-Jan-23 03:24 200 9 gusting 11 11.7 3.9
2018-Jan-23 03:18 195 10 gusting 12 11.7 3.9
2018-Jan-23 03:12 195 9 gusting 11 11.7 3.3
2018-Jan-23 03:06 205 10 gusting 13 11.7 3.3
2018-Jan-23 03:00 213 9 gusting 11 12.2 3.3
2018-Jan-23 02:54 224 8 gusting 11 12.2 3.3
2018-Jan-23 02:48 226 9 gusting 11 12.2 3.3
2018-Jan-23 02:42 225 8 gusting 10 12.2 3.3
2018-Jan-23 02:36 215 7 gusting 8 11.7 3.3
2018-Jan-23 02:30 211 7 gusting 10 11.7 3.3
2018-Jan-23 02:24 216 7 gusting 9 12.2 3.3
2018-Jan-23 02:18 214 7 gusting 9 11.7 3.3
2018-Jan-23 02:12 196 7 gusting 9 11.1 3.3
2018-Jan-23 02:06 189 7 gusting 9 11.1 3.3
2018-Jan-23 02:00 184 6 gusting 7 11.7 3.3
2018-Jan-23 01:54 186 7 gusting 7 11.1 3.3
2018-Jan-23 01:48 184 6 gusting 7 11.1 3.3
2018-Jan-23 01:42 185 7 gusting 8 11.1 3.3
2018-Jan-23 01:36 186 6 gusting 8 11.7 3.3
2018-Jan-23 01:30 184 6 gusting 7 11.1 3.3
2018-Jan-23 01:24 193 7 gusting 8 11.7 3.3
2018-Jan-23 01:18 199 7 gusting 7 12.2 2.8
2018-Jan-23 01:12 198 6 gusting 7 12.2 2.8
2018-Jan-23 01:06 202 6 gusting 6 12.2 3.3
2018-Jan-23 01:00 208 7 gusting 8 11.7 3.3
2018-Jan-23 00:54 210 8 gusting 9 11.7 3.3
2018-Jan-23 00:48 203 7 gusting 10 11.7 3.3
2018-Jan-23 00:42 205 9 gusting 11 11.1 3.3
2018-Jan-23 00:36 182 7 gusting 10 12.2 3.3
2018-Jan-23 00:30 175 9 gusting 12 12.2 3.3
2018-Jan-23 00:24 165 6 gusting 9 12.2 2.8
2018-Jan-23 00:18 168 5 gusting 7 12.2 2.8
2018-Jan-23 00:12 180 4 gusting 5 12.2 2.8
2018-Jan-23 00:06 186 3 gusting 4 12.2 2.8
2018-Jan-23 00:00 198 3 gusting 4 12.2 2.8
2018-Jan-22 23:54 164 6 gusting 6 12.8 2.2
2018-Jan-22 23:48 167 6 gusting 7 12.8 2.2
2018-Jan-22 23:42 168 6 gusting 7 12.8 2.2
2018-Jan-22 23:36 163 7 gusting 10 12.8 2.2
2018-Jan-22 23:30 166 7 gusting 9 12.8 2.2
2018-Jan-22 23:24 169 8 gusting 10 12.8 2.2
2018-Jan-22 23:18 177 7 gusting 9 12.8 2.2
2018-Jan-22 23:12 182 6 gusting 7 12.8 2.2
2018-Jan-22 23:06 178 7 gusting 9 12.8 2.2
2018-Jan-22 23:00 178 9 gusting 11 13.3 2.2
2018-Jan-22 22:54 176 8 gusting 9 13.3 2.2
2018-Jan-22 22:48 179 7 gusting 8 13.3 2.2
2018-Jan-22 22:42 189 10 gusting 10 13.3 2.2
2018-Jan-22 22:36 185 9 gusting 9 13.3 2.8
2018-Jan-22 22:30 184 8 gusting 11 13.9 2.2
2018-Jan-22 22:24 179 7 gusting 8 14.4 2.2
2018-Jan-22 22:18 169 6 gusting 8 14.4 2.2
2018-Jan-22 22:12 172 6 gusting 6 14.4 2.2
2018-Jan-22 22:06 166 6 gusting 6 14.4 2.8
2018-Jan-22 22:00 160 6 gusting 6 13.9 2.8
2018-Jan-22 21:54 159 6 gusting 6 14.4 2.8
2018-Jan-22 21:48 149 6 gusting 9 14.4 2.8
2018-Jan-22 21:42 146 7 gusting 8 14.4 3.3
2018-Jan-22 21:36 174 7 gusting 8 15.6 2.8
2018-Jan-22 21:30 187 8 gusting 9 15.6 3.3
2018-Jan-22 21:24 179 8 gusting 11 15.6 2.8
2018-Jan-22 21:18 192 7 gusting 9 16.1 2.8
2018-Jan-22 21:12 192 7 gusting 9 16.1 3.3
2018-Jan-22 21:06 184 6 gusting 6 16.1 3.3
2018-Jan-22 21:00 190 6 gusting 8 15.6 3.3
2018-Jan-22 20:54 194 7 gusting 9 16.1 3.3
2018-Jan-22 20:48 197 6 gusting 6 16.1 3.3
2018-Jan-22 20:42 189 5 gusting 6 16.1 3.3
2018-Jan-22 20:36 210 6 gusting 6 16.7 3.3
2018-Jan-22 20:30 217 6 gusting 8 16.7 3.3
2018-Jan-22 20:24 210 6 gusting 8 16.7 3.3
2018-Jan-22 20:18 213 8 gusting 10 16.1 3.3
2018-Jan-22 20:12 211 7 gusting 8 16.7 3.3
2018-Jan-22 20:06 221 9 gusting 11 16.7 3.3
2018-Jan-22 20:00 217 10 gusting 12 16.7
2018-Jan-22 19:54 212 11 gusting 13 16.7
2018-Jan-22 19:48 210 11 gusting 14 16.1
2018-Jan-22 19:42 208 7 gusting 9 16.7
2018-Jan-22 19:36 211 6 gusting 7 16.7
2018-Jan-22 19:30 212 11 gusting 13 16.7
2018-Jan-22 19:24 209 6 gusting 7 16.1
2018-Jan-22 19:18 202 8 gusting 11 16.1
2018-Jan-22 19:12 212 10 gusting 12 16.1
2018-Jan-22 19:06 206 10 gusting 12 16.1
2018-Jan-22 19:00 209 10 gusting 11 16.1 3.3
2018-Jan-22 18:54 208 9 gusting 11 16.1 3.3
2018-Jan-22 18:48 215 8 gusting 9 16.7 3.3
2018-Jan-22 18:42 217 8 gusting 9 16.1 3.3
2018-Jan-22 18:36 211 11 gusting 13 16.1 3.3
2018-Jan-22 18:30 206 10 gusting 11 15.6 3.3
2018-Jan-22 18:24 206 8 gusting 11 15.6 3.3
2018-Jan-22 18:18 209 7 gusting 9 15.6 3.3
2018-Jan-22 18:12 208 6 gusting 10 16.1 3.3
2018-Jan-22 18:06 212 9 gusting 11 15.6 3.3
2018-Jan-22 18:00 222 9 gusting 11 16.7 3.3
2018-Jan-22 17:54 227 11 gusting 14 16.7 3.3
2018-Jan-22 17:48 224 9 gusting 13 16.1 3.3
2018-Jan-22 17:42 233 13 gusting 16 16.7 3.3
2018-Jan-22 17:36 234 11 gusting 13 16.7 3.3
2018-Jan-22 17:30 226 8 gusting 11 16.1 3.3
2018-Jan-22 17:24 229 9 gusting 11 16.1 3.3
2018-Jan-22 17:18 223 8 gusting 10 16.7 2.8
2018-Jan-22 17:12 216 9 gusting 11 16.1 2.8
2018-Jan-22 17:06 214 7 gusting 9 16.1 2.8
2018-Jan-22 17:00 216 6 gusting 8 16.7 2.8
2018-Jan-22 16:54 218 7 gusting 11 16.1 2.8
2018-Jan-22 16:48 215 6 gusting 6 16.1 2.8
2018-Jan-22 16:42 224 9 gusting 11 16.7 2.8
2018-Jan-22 16:36 221 6 gusting 8 16.1 2.8
2018-Jan-22 16:30 229 6 gusting 8 16.7 2.8
2018-Jan-22 16:24 233 9 gusting 11 16.1 2.8
2018-Jan-22 16:18 236 11 gusting 13 16.7 2.8
2018-Jan-22 16:12 238 10 gusting 13 16.7 2.8
2018-Jan-22 16:06 233 6 gusting 7 16.7 2.8
2018-Jan-22 16:00 236 9 gusting 11 16.7 2.8
2018-Jan-22 15:54 225 5 gusting 6 15.6 2.8
2018-Jan-22 15:48 225 3 gusting 4 15.0 2.8
2018-Jan-22 15:42 206 5 gusting 6 14.4 2.8
2018-Jan-22 15:36 205 5 gusting 6 14.4 2.8
2018-Jan-22 15:30 214 6 gusting 6 14.4 2.8
2018-Jan-22 15:24 217 6 gusting 7 14.4 2.8
2018-Jan-22 15:18 215 7 gusting 8 13.9 2.8
2018-Jan-22 15:12 215 9 gusting 10 13.9 2.8
2018-Jan-22 15:06 214 9 gusting 11 13.3 2.8
2018-Jan-22 15:00 217 8 gusting 10 13.3 2.8
2018-Jan-22 14:54 215 9 gusting 11 12.8 2.8
2018-Jan-22 14:48 218 10 gusting 11 13.3 2.8
2018-Jan-22 14:42 217 11 gusting 13 12.8 2.8
2018-Jan-22 14:36 218 12 gusting 13 12.8 2.8
2018-Jan-22 14:30 216 12 gusting 14 12.2 2.8
2018-Jan-22 14:24 218 13 gusting 15 12.8 2.8
2018-Jan-22 14:18 217 13 gusting 16 12.2 2.8
2018-Jan-22 14:12 214 13 gusting 14 12.2 2.8
2018-Jan-22 14:06 217 13 gusting 14 12.2 2.8
2018-Jan-22 14:00 218 12 gusting 13 11.7 2.8
2018-Jan-22 13:54 220 12 gusting 13 11.7 2.8
2018-Jan-22 13:48 218 11 gusting 13 11.7 2.8
2018-Jan-22 13:42 220 10 gusting 11 11.7 2.8
2018-Jan-22 13:36 217 9 gusting 11 11.1 2.8
2018-Jan-22 13:30 216 9 gusting 12 11.1 2.8
2018-Jan-22 13:24 223 9 gusting 10 11.1 2.8
2018-Jan-22 13:18 221 8 gusting 10 10.6 2.8
2018-Jan-22 13:12 216 8 gusting 9 10.6 2.8
2018-Jan-22 13:06 222 7 gusting 9 10.6 2.8
2018-Jan-22 13:00 228 6 gusting 8 10.6 2.8
2018-Jan-22 12:54 222 7 gusting 10 11.1 2.8
2018-Jan-22 12:48 219 7 gusting 10 10.6 2.8
2018-Jan-22 12:42 218 9 gusting 10 10.6 2.2
2018-Jan-22 12:36 216 9 gusting 10 10.6 2.2
2018-Jan-22 12:30 222 8 gusting 10 11.1 2.8
2018-Jan-22 12:24 237 9 gusting 10 10.6 2.8
2018-Jan-22 12:18 238 9 gusting 10 10.6 2.8
2018-Jan-22 12:12 235 9 gusting 11 10.6 2.8
2018-Jan-22 12:06 233 7 gusting 10 10.0 2.8
2018-Jan-22 12:00 227 7 gusting 9 10.0 2.8
2018-Jan-22 11:54 230 7 gusting 9 10.0 2.8
2018-Jan-22 11:48 219 9 gusting 11 10.0 2.8
2018-Jan-22 11:42 212 10 gusting 12 10.0 2.8
2018-Jan-22 11:36 214 10 gusting 12 10.0 2.8
2018-Jan-22 11:30 217 10 gusting 12 10.0 2.8
2018-Jan-22 11:24 222 10 gusting 12 10.0 2.8
2018-Jan-22 11:18 225 11 gusting 12 10.0 2.8
2018-Jan-22 11:12 225 10 gusting 12 10.0 2.8
2018-Jan-22 11:06 225 10 gusting 12 10.0 2.8
2018-Jan-22 11:00 230 10 gusting 13 10.6 2.8
2018-Jan-22 10:54 230 10 gusting 13 10.0 2.8
2018-Jan-22 10:48 227 11 gusting 13 10.6 2.8
2018-Jan-22 10:42 224 11 gusting 12 10.6 2.8
2018-Jan-22 10:36 223 11 gusting 13 10.6 2.8
2018-Jan-22 10:30 219 10 gusting 12 10.0 2.8
2018-Jan-22 10:24 219 11 gusting 13 10.6 2.8
2018-Jan-22 10:18 220 11 gusting 13 10.6 2.8
2018-Jan-22 10:12 220 10 gusting 13 10.6 2.8
2018-Jan-22 10:06 225 9 gusting 11 10.6 2.8
2018-Jan-22 10:00 223 8 gusting 9 10.6 2.8
2018-Jan-22 09:54 225 8 gusting 10 10.6 2.8
2018-Jan-22 09:48 221 9 gusting 12 11.1 2.2
2018-Jan-22 09:42 222 9 gusting 10 10.6 2.2
2018-Jan-22 09:36 224 9 gusting 12 11.1 2.2
2018-Jan-22 09:30 225 10 gusting 13 11.1 2.2
2018-Jan-22 09:24 225 9 gusting 11 10.6 2.2
2018-Jan-22 09:18 223 9 gusting 11 10.6 2.2
2018-Jan-22 09:12 221 9 gusting 11 11.1 2.2
2018-Jan-22 09:06 223 8 gusting 10 10.6 2.2
2018-Jan-22 09:00 225 8 gusting 11 10.6 2.2
2018-Jan-22 08:54 224 8 gusting 9 10.6 2.2
2018-Jan-22 08:48 221 9 gusting 12 11.1 2.2
2018-Jan-22 08:42 224 9 gusting 11 11.1 2.8
2018-Jan-22 08:36 223 10 gusting 12 11.1 2.2
2018-Jan-22 08:30 223 9 gusting 11 11.1 2.2
2018-Jan-22 08:24 225 9 gusting 12 11.1 2.2
2018-Jan-22 08:18 225 10 gusting 12 11.1 2.2
2018-Jan-22 08:12 224 10 gusting 13 11.1 2.2
2018-Jan-22 08:06 225 9 gusting 11 11.1 2.2
2018-Jan-22 08:00 229 10 gusting 13 11.1 2.2
2018-Jan-22 07:54 224 10 gusting 13 10.6 2.2
2018-Jan-22 07:48 221 11 gusting 13 11.1 2.2
2018-Jan-22 07:42 220 10 gusting 13 11.1 2.2
2018-Jan-22 07:36 225 10 gusting 12 11.1 2.2
2018-Jan-22 07:30 225 11 gusting 13 11.1 2.2
2018-Jan-22 07:24 226 11 gusting 13 11.1 2.2
2018-Jan-22 07:18 228 12 gusting 14 11.1 2.2
2018-Jan-22 07:12 229 11 gusting 14 11.1 2.2
2018-Jan-22 07:06 227 8 gusting 11 10.6 2.2
2018-Jan-22 07:00 220 9 gusting 11 10.6 2.8
2018-Jan-22 06:54 220 9 gusting 12 10.6 2.8
2018-Jan-22 06:48 223 9 gusting 10 11.1 2.8
2018-Jan-22 06:42 227 8 gusting 9 10.6 2.8
2018-Jan-22 06:36 230 9 gusting 11 11.1 2.8
2018-Jan-22 06:30 228 9 gusting 11 11.1 2.8
2018-Jan-22 06:24 228 9 gusting 12 11.1 2.2
2018-Jan-22 06:18 226 10 gusting 11 11.1 2.2
2018-Jan-22 06:12 227 9 gusting 12 11.1 2.2
2018-Jan-22 06:06 230 9 gusting 12 11.1 2.2
2018-Jan-22 06:00 233 9 gusting 11 11.1 2.2
2018-Jan-22 05:54 231 10 gusting 12 11.1 2.2
2018-Jan-22 05:48 229 10 gusting 13 11.1 2.2
2018-Jan-22 05:42 230 9 gusting 11 11.1 2.2
2018-Jan-22 05:36 232 9 gusting 11 11.7 2.2
2018-Jan-22 05:30 232 9 gusting 11 11.7 2.2
2018-Jan-22 05:24 233 8 gusting 11 11.1 2.2
2018-Jan-22 05:18 231 8 gusting 9 11.1 2.2
2018-Jan-22 05:12 231 8 gusting 10 11.1 2.8
2018-Jan-22 05:06 232 7 gusting 8 11.1 2.8
2018-Jan-22 05:00 229 6 gusting 8 11.1 2.8
2018-Jan-22 04:54 223 6 gusting 8 11.1 2.8
2018-Jan-22 04:48 216 6 gusting 8 11.1 2.8
2018-Jan-22 04:42 222 6 gusting 6 11.1 2.8
2018-Jan-22 04:36 221 6 gusting 6 11.7 2.8
2018-Jan-22 04:30 214 6 gusting 7 11.7 2.8
2018-Jan-22 04:24 220 6 gusting 7 11.7 2.8
2018-Jan-22 04:18 220 7 gusting 8 11.7 2.8
2018-Jan-22 04:12 240 7 gusting 9 11.7 2.8
2018-Jan-22 04:06 246 6 gusting 7 11.7 2.2
2018-Jan-22 04:00 228 8 gusting 10 11.7 2.2
2018-Jan-22 03:54 221 8 gusting 10 11.7 2.2
2018-Jan-22 03:48 218 8 gusting 10 11.7 2.2
2018-Jan-22 03:42 215 7 gusting 8 11.7 2.2
2018-Jan-22 03:36 216 8 gusting 9 11.7 2.2
2018-Jan-22 03:30 215 9 gusting 11 11.7 2.2
2018-Jan-22 03:24 218 8 gusting 10 11.7 2.2
2018-Jan-22 03:18 221 9 gusting 11 11.7 2.2
2018-Jan-22 03:12 222 9 gusting 11 11.7 2.2
2018-Jan-22 03:06 223 9 gusting 12 11.7 2.2
2018-Jan-22 03:00 223 9 gusting 11 11.7 2.2
2018-Jan-22 02:54 220 9 gusting 13 12.2 2.2
2018-Jan-22 02:48 218 9 gusting 12 12.2 2.2
2018-Jan-22 02:42 219 10 gusting 14 11.7 2.2
2018-Jan-22 02:36 221 10 gusting 12 11.7 2.2
2018-Jan-22 02:30 215 10 gusting 12 11.7 2.2
2018-Jan-22 02:24 217 9 gusting 11 11.7 2.2
2018-Jan-22 02:18 224 8 gusting 9 12.2 2.2
2018-Jan-22 02:12 218 7 gusting 10 12.2 2.2
2018-Jan-22 02:06 215 7 gusting 9 12.2 2.2
2018-Jan-22 02:00 208 8 gusting 9 11.7 2.2
2018-Jan-22 01:54 199 9 gusting 10 11.7 2.2
2018-Jan-22 01:48 208 10 gusting 13 11.7 2.2
2018-Jan-22 01:42 217 9 gusting 12 11.7 2.2
2018-Jan-22 01:36 211 9 gusting 11 11.7 2.2
2018-Jan-22 01:30 213 9 gusting 10 11.7 2.2
2018-Jan-22 01:24 211 8 gusting 9 11.7 2.2
2018-Jan-22 01:18 209 7 gusting 8 11.7 2.2
2018-Jan-22 01:12 203 7 gusting 8 11.7 2.2
2018-Jan-22 01:06 208 8 gusting 9 12.2 2.2
2018-Jan-22 01:00 211 9 gusting 11 11.7 2.2
2018-Jan-22 00:54 210 9 gusting 10 11.7 2.2
2018-Jan-22 00:48 211 8 gusting 9 11.7 2.2
2018-Jan-22 00:42 219 10 gusting 11 12.2 2.2
2018-Jan-22 00:36 216 8 gusting 10 11.7 2.2
2018-Jan-22 00:30 203 9 gusting 11 11.7 2.2
2018-Jan-22 00:24 201 9 gusting 10 11.7 2.2
2018-Jan-22 00:18 199 9 gusting 11 11.7 2.2
2018-Jan-22 00:12 207 9 gusting 10 12.2 2.2
2018-Jan-22 00:06 208 9 gusting 12 11.7 2.2
2018-Jan-22 00:00 201 10 gusting 11 11.7 2.2